Terminal Aerodrome Forecast
Issued by NWS

Home | Current Version | Previous Version | Text Only | Print | Product List | Glossary Off
Versions: 1 2 3 4 5 6 7 8 9 10 11 12 13 14 15 16 17 18 19 20 21 22 23

000
FTUS43 KTOP 151400 AAA
TAFMHK
TAF AMD
KMHK 151413Z 1514/1612 22005KT P6SM SCT015 SCT040
     FM151500 01010KT P6SM VCSH BKN015
     FM151800 02011KT P6SM SCT040
     FM160100 04002KT P6SM SKC=

USA.gov is the U.S. government's official web portal to all federal, state and local government web resources and services.